createdAt,value
2023-01-30T00:00:56.478Z,94.70
2023-01-30T00:03:42.314Z,94.70
2023-01-30T00:06:27.939Z,94.60
2023-01-30T00:09:15.135Z,94.50
2023-01-30T00:12:00.616Z,94.50
2023-01-30T00:14:46.088Z,94.30
2023-01-30T00:17:31.551Z,94.20
2023-01-30T00:20:17.394Z,94.10
2023-01-30T00:23:03.461Z,94.10
2023-01-30T00:25:49.093Z,94.10
2023-01-30T00:28:34.533Z,94.10
2023-01-30T00:31:20.026Z,94.00
2023-01-30T00:34:05.306Z,94.00
2023-01-30T00:36:58.955Z,93.90
2023-01-30T00:39:52.871Z,93.90
2023-01-30T00:42:56.759Z,93.90
2023-01-30T00:46:03.468Z,93.90
2023-01-30T00:48:49.276Z,93.80
2023-01-30T00:51:34.752Z,93.90
2023-01-30T00:54:20.530Z,93.80
2023-01-30T00:57:05.825Z,93.90
2023-01-30T00:59:53.595Z,93.80
2023-01-30T01:02:41.752Z,93.70
2023-01-30T01:05:33.319Z,93.70
2023-01-30T01:08:18.570Z,93.70
2023-01-30T01:11:04.312Z,93.50
2023-01-30T01:13:50.663Z,93.50
2023-01-30T01:16:36.736Z,93.50
2023-01-30T01:19:25.734Z,93.40
2023-01-30T01:22:12.149Z,93.30
2023-01-30T01:24:57.703Z,93.20
2023-01-30T01:27:46.229Z,93.10
2023-01-30T01:30:31.739Z,93.10
2023-01-30T01:33:17.380Z,93.10
2023-01-30T01:36:04.661Z,93.10
2023-01-30T01:38:50.235Z,93.00
2023-01-30T01:41:35.795Z,93.00
2023-01-30T01:44:23.908Z,92.90
2023-01-30T01:47:10.068Z,92.90
2023-01-30T01:49:56.392Z,92.80
2023-01-30T01:52:43.261Z,92.70
2023-01-30T01:55:30.350Z,92.70
2023-01-30T01:58:31.976Z,92.50
2023-01-30T02:01:17.509Z,92.40
2023-01-30T02:04:10.052Z,93.00
2023-01-30T02:06:55.580Z,93.50
2023-01-30T02:09:41.236Z,93.80
2023-01-30T02:12:27.040Z,94.00
2023-01-30T02:15:12.917Z,94.50
2023-01-30T02:17:58.453Z,94.90
2023-01-30T02:21:21.673Z,95.10
2023-01-30T02:24:44.754Z,95.50
2023-01-30T02:27:40.131Z,95.70
2023-01-30T02:30:44.544Z,95.70
2023-01-30T02:33:51.432Z,95.90
2023-01-30T02:36:50.891Z,96.00
2023-01-30T02:39:50.828Z,96.10
2023-01-30T02:42:51.365Z,96.20
2023-01-30T02:45:48.056Z,96.40
2023-01-30T02:49:00.094Z,96.40
2023-01-30T02:51:50.733Z,96.40
2023-01-30T02:54:36.242Z,96.40
2023-01-30T02:57:24.252Z,96.40
2023-01-30T03:00:16.245Z,96.50
2023-01-30T03:03:20.139Z,96.40
2023-01-30T03:06:34.951Z,96.50
2023-01-30T03:09:48.024Z,96.50
2023-01-30T03:12:52.818Z,96.50
2023-01-30T03:15:48.180Z,96.40
2023-01-30T03:18:33.571Z,96.40
2023-01-30T03:21:19.527Z,96.40
2023-01-30T03:24:05.584Z,96.40
2023-01-30T03:26:58.330Z,96.20
2023-01-30T03:29:48.133Z,96.20
2023-01-30T03:32:34.007Z,96.30
2023-01-30T03:35:19.744Z,96.20
2023-01-30T03:38:05.500Z,96.10
2023-01-30T03:40:50.884Z,96.10
2023-01-30T03:43:36.274Z,96.00
2023-01-30T03:46:23.851Z,95.90
2023-01-30T03:49:09.117Z,95.90
2023-01-30T03:51:54.628Z,95.90
2023-01-30T03:54:41.098Z,95.80
2023-01-30T03:57:27.116Z,95.60
2023-01-30T04:00:13.279Z,95.70
2023-01-30T04:03:01.921Z,95.60
2023-01-30T04:05:47.345Z,95.60
2023-01-30T04:08:33.100Z,95.50
2023-01-30T04:11:23.772Z,95.40
2023-01-30T04:14:09.761Z,95.30
2023-01-30T04:17:04.443Z,95.20
2023-01-30T04:20:12.170Z,95.20
2023-01-30T04:23:02.976Z,95.10
2023-01-30T04:25:49.103Z,95.00
2023-01-30T04:28:37.677Z,95.00
2023-01-30T04:31:23.218Z,95.00
2023-01-30T04:34:23.977Z,95.00
2023-01-30T04:37:09.780Z,95.10
2023-01-30T04:39:58.849Z,95.20
2023-01-30T04:42:46.061Z,95.10
2023-01-30T04:45:54.368Z,94.90
2023-01-30T04:48:40.388Z,94.40
2023-01-30T04:51:28.385Z,94.20
2023-01-30T04:54:18.527Z,93.60
2023-01-30T04:57:04.477Z,93.10
2023-01-30T04:59:50.137Z,92.90
2023-01-30T05:02:36.859Z,92.30
2023-01-30T05:05:26.922Z,92.20
2023-01-30T05:08:12.470Z,91.90
2023-01-30T05:10:59.999Z,91.50
2023-01-30T05:13:45.761Z,91.30
2023-01-30T05:16:31.024Z,91.00
2023-01-30T05:19:19.064Z,91.00
2023-01-30T05:22:07.684Z,90.90
2023-01-30T05:24:53.282Z,90.90
2023-01-30T05:27:38.587Z,91.00
2023-01-30T05:30:24.212Z,90.80
2023-01-30T05:33:13.795Z,90.90
2023-01-30T05:35:59.738Z,90.80
2023-01-30T05:38:47.587Z,90.90
2023-01-30T05:41:33.181Z,90.90
2023-01-30T05:44:18.689Z,91.00
2023-01-30T05:47:03.876Z,91.00
2023-01-30T05:49:49.573Z,91.10
2023-01-30T05:52:35.079Z,91.20
2023-01-30T05:55:20.937Z,91.20
2023-01-30T05:58:06.065Z,91.20
2023-01-30T06:00:51.850Z,91.30
2023-01-30T06:03:37.775Z,91.40
2023-01-30T06:06:24.319Z,91.30
2023-01-30T06:09:11.059Z,91.30
2023-01-30T06:11:56.679Z,91.30
2023-01-30T06:14:42.171Z,91.30
2023-01-30T06:17:29.760Z,91.20
2023-01-30T06:20:20.936Z,91.20
2023-01-30T06:23:06.318Z,91.10
2023-01-30T06:25:55.760Z,91.00
2023-01-30T06:28:44.368Z,91.00
2023-01-30T06:31:30.029Z,90.90
2023-01-30T06:34:15.529Z,90.90
2023-01-30T06:37:01.036Z,90.80
2023-01-30T06:39:46.583Z,90.70
2023-01-30T06:42:34.781Z,90.50
2023-01-30T06:45:20.867Z,90.30
2023-01-30T06:48:07.083Z,90.20
2023-01-30T06:50:52.870Z,90.00
2023-01-30T06:53:38.272Z,89.30
2023-01-30T06:56:23.890Z,88.90
2023-01-30T06:59:09.772Z,88.30
2023-01-30T07:01:55.117Z,87.60
2023-01-30T07:04:41.723Z,87.20
2023-01-30T07:07:29.289Z,86.70
2023-01-30T07:10:14.747Z,86.30
2023-01-30T07:13:00.276Z,86.20
2023-01-30T07:15:46.695Z,86.10
2023-01-30T07:18:32.908Z,85.70
2023-01-30T07:21:18.387Z,85.50
2023-01-30T07:24:04.081Z,85.20
2023-01-30T07:26:49.303Z,85.30
2023-01-30T07:29:36.012Z,85.10
2023-01-30T07:32:24.557Z,85.00
2023-01-30T07:35:10.194Z,85.00
2023-01-30T07:37:55.792Z,84.80
2023-01-30T07:40:40.843Z,85.60
2023-01-30T07:43:26.718Z,84.80
2023-01-30T07:46:12.015Z,84.90
2023-01-30T07:48:59.606Z,84.90
2023-01-30T07:51:45.100Z,84.90
2023-01-30T07:54:30.563Z,84.70
2023-01-30T07:57:16.123Z,84.60
2023-01-30T08:00:02.699Z,84.30
2023-01-30T08:02:54.306Z,84.00
2023-01-30T08:05:39.675Z,83.80
2023-01-30T08:08:25.355Z,83.70
2023-01-30T08:11:13.229Z,83.50
2023-01-30T08:13:58.718Z,83.60
2023-01-30T08:16:44.409Z,83.30
2023-01-30T08:19:29.573Z,83.20
2023-01-30T08:22:17.324Z,83.10
2023-01-30T08:25:02.858Z,83.00
2023-01-30T08:27:49.286Z,82.90
2023-01-30T08:30:34.569Z,82.70
2023-01-30T08:33:21.517Z,82.60
2023-01-30T08:36:07.249Z,82.50
2023-01-30T08:38:53.456Z,82.30
2023-01-30T08:41:38.829Z,81.90
2023-01-30T08:44:25.896Z,81.70
2023-01-30T08:47:13.932Z,81.60
2023-01-30T08:49:59.323Z,81.50
2023-01-30T08:52:44.876Z,81.30
2023-01-30T08:55:30.181Z,81.10
2023-01-30T08:58:15.718Z,80.90
2023-01-30T09:01:06.247Z,80.90
2023-01-30T09:03:51.629Z,80.30
2023-01-30T09:06:37.207Z,79.40
2023-01-30T09:09:22.472Z,78.80
2023-01-30T09:12:08.036Z,79.30
2023-01-30T09:14:55.554Z,78.20
2023-01-30T09:17:41.193Z,78.40
2023-01-30T09:20:26.611Z,77.60
2023-01-30T09:23:12.287Z,77.30
2023-01-30T09:25:58.146Z,77.00
2023-01-30T09:28:43.441Z,76.90
2023-01-30T09:31:28.767Z,77.00
2023-01-30T09:34:14.157Z,76.60
2023-01-30T09:37:05.159Z,76.60
2023-01-30T09:39:53.510Z,76.60
2023-01-30T09:42:51.076Z,76.00
2023-01-30T09:45:42.000Z,75.90
2023-01-30T09:48:47.471Z,75.80
2023-01-30T09:52:14.010Z,75.30
2023-01-30T09:55:23.930Z,74.90
2023-01-30T09:58:18.653Z,75.00
2023-01-30T10:01:08.136Z,75.00
2023-01-30T10:04:15.072Z,76.00
2023-01-30T10:07:27.402Z,75.30
2023-01-30T10:10:51.041Z,74.90
2023-01-30T10:13:55.424Z,75.10
2023-01-30T10:17:10.592Z,74.50
2023-01-30T10:20:07.992Z,74.30
2023-01-30T10:23:22.356Z,74.00
2023-01-30T10:26:16.122Z,73.50
2023-01-30T10:29:18.368Z,73.60
2023-01-30T10:32:28.873Z,73.60
2023-01-30T10:35:20.230Z,73.80
2023-01-30T10:38:26.277Z,73.60
2023-01-30T10:41:17.088Z,72.30
2023-01-30T10:44:15.068Z,72.00
2023-01-30T10:47:45.623Z,72.30
2023-01-30T10:50:49.589Z,72.10
2023-01-30T10:53:37.823Z,72.00
2023-01-30T10:56:37.166Z,72.50
2023-01-30T10:59:24.456Z,72.50
2023-01-30T11:02:12.801Z,72.20
2023-01-30T11:05:25.968Z,72.30
2023-01-30T11:08:30.617Z,72.30
2023-01-30T11:11:46.964Z,72.80
2023-01-30T11:15:04.511Z,72.90
2023-01-30T11:17:49.876Z,72.60
2023-01-30T11:20:46.690Z,72.60
2023-01-30T11:23:39.124Z,72.70
2023-01-30T11:26:32.073Z,73.10
2023-01-30T11:29:31.936Z,72.60
2023-01-30T11:32:26.249Z,72.40
2023-01-30T11:35:14.972Z,72.70
2023-01-30T11:38:34.610Z,71.80
2023-01-30T11:41:22.071Z,71.90
2023-01-30T11:44:10.934Z,68.40
2023-01-30T11:47:01.282Z,67.60
2023-01-30T11:50:04.149Z,66.20
2023-01-30T11:53:07.361Z,63.30
2023-01-30T11:56:04.180Z,64.60
2023-01-30T11:59:14.571Z,62.30
2023-01-30T12:02:32.692Z,60.50
2023-01-30T12:05:24.080Z,58.40
2023-01-30T12:08:39.338Z,55.30
2023-01-30T12:11:28.499Z,54.70
2023-01-30T12:14:40.087Z,54.00
2023-01-30T12:17:51.103Z,53.30
2023-01-30T12:21:00.301Z,52.90
2023-01-30T12:23:52.546Z,52.30
2023-01-30T12:26:46.160Z,53.70
2023-01-30T12:29:40.874Z,50.20
2023-01-30T12:32:28.966Z,49.30
2023-01-30T12:35:19.011Z,48.30
2023-01-30T12:38:21.400Z,49.00
2023-01-30T12:41:45.531Z,50.60
2023-01-30T12:45:01.616Z,51.10
2023-01-30T12:48:05.731Z,49.80
2023-01-30T12:51:17.174Z,48.30
2023-01-30T12:54:25.265Z,45.50
2023-01-30T12:57:20.137Z,45.60
2023-01-30T13:00:36.350Z,45.20
2023-01-30T13:03:26.998Z,43.60
2023-01-30T13:06:43.380Z,42.70
2023-01-30T13:09:31.633Z,41.80
2023-01-30T13:13:03.964Z,42.50
2023-01-30T13:16:01.224Z,43.40
2023-01-30T13:19:23.145Z,40.90
2023-01-30T13:22:31.169Z,41.40
2023-01-30T13:25:32.778Z,41.60
2023-01-30T13:28:28.993Z,41.30
2023-01-30T13:31:21.448Z,41.00
2023-01-30T13:34:12.774Z,40.20
2023-01-30T13:37:21.405Z,40.60
2023-01-30T13:40:35.363Z,42.90
2023-01-30T13:43:44.186Z,45.20
2023-01-30T13:46:35.787Z,47.50
2023-01-30T13:50:00.439Z,49.60
2023-01-30T13:53:28.193Z,51.60
2023-01-30T13:56:44.630Z,53.50
2023-01-30T13:59:46.499Z,54.30
2023-01-30T14:02:31.875Z,55.50
2023-01-30T14:05:52.985Z,56.40
2023-01-30T14:08:48.203Z,56.70
2023-01-30T14:11:44.888Z,57.70
2023-01-30T14:14:38.339Z,58.60
2023-01-30T14:17:24.379Z,59.00
2023-01-30T14:20:19.999Z,59.90
2023-01-30T14:23:16.233Z,60.70
2023-01-30T14:26:11.565Z,59.50
2023-01-30T14:28:58.426Z,57.20
2023-01-30T14:31:51.118Z,57.50
2023-01-30T14:35:02.389Z,58.40
2023-01-30T14:37:51.122Z,59.20
2023-01-30T14:40:38.685Z,60.00
2023-01-30T14:43:36.378Z,60.90
2023-01-30T14:46:21.771Z,59.30
2023-01-30T14:49:24.903Z,59.70
2023-01-30T14:52:42.702Z,59.80
2023-01-30T14:55:31.456Z,60.20
2023-01-30T14:58:18.794Z,59.40
2023-01-30T15:01:08.130Z,59.10
2023-01-30T15:03:54.137Z,58.40
2023-01-30T15:06:39.333Z,58.20
2023-01-30T15:09:27.604Z,58.40
2023-01-30T15:12:34.112Z,57.40
2023-01-30T15:15:47.051Z,57.40
2023-01-30T15:18:51.995Z,57.60
2023-01-30T15:21:52.442Z,57.40
2023-01-30T15:24:47.009Z,58.10
2023-01-30T15:27:52.424Z,58.90
2023-01-30T15:31:05.943Z,59.60
2023-01-30T15:33:53.806Z,60.30
2023-01-30T15:36:39.232Z,60.60
2023-01-30T15:39:28.312Z,61.40
2023-01-30T15:42:16.140Z,62.70
2023-01-30T15:45:30.043Z,63.60
2023-01-30T15:48:39.774Z,64.10
2023-01-30T15:51:30.470Z,64.40
2023-01-30T15:54:19.262Z,65.20
2023-01-30T15:57:13.062Z,66.10
2023-01-30T15:59:59.233Z,66.80
2023-01-30T16:02:44.597Z,67.50
2023-01-30T16:05:30.523Z,68.50
2023-01-30T16:08:32.873Z,69.40
2023-01-30T16:11:42.718Z,69.90
2023-01-30T16:14:28.026Z,70.30
2023-01-30T16:17:17.843Z,70.70
2023-01-30T16:20:03.858Z,71.10
2023-01-30T16:22:50.932Z,71.80
2023-01-30T16:25:36.261Z,72.60
2023-01-30T16:28:26.537Z,73.20
2023-01-30T16:31:12.596Z,73.50
2023-01-30T16:33:58.797Z,73.90
2023-01-30T16:36:47.569Z,74.40
2023-01-30T16:39:35.428Z,74.60
2023-01-30T16:42:25.628Z,74.70
2023-01-30T16:45:33.674Z,74.70
2023-01-30T16:48:24.798Z,74.60
2023-01-30T16:51:21.354Z,74.80
2023-01-30T16:54:19.088Z,74.90
2023-01-30T16:57:21.300Z,74.90
2023-01-30T17:00:22.657Z,74.90
2023-01-30T17:03:34.287Z,74.80
2023-01-30T17:06:50.397Z,74.60
2023-01-30T17:09:37.875Z,74.60
2023-01-30T17:12:37.419Z,74.30
2023-01-30T17:15:22.952Z,74.50
2023-01-30T17:18:09.835Z,74.50
2023-01-30T17:20:55.462Z,74.30
2023-01-30T17:23:47.810Z,74.20
2023-01-30T17:26:33.892Z,74.40
2023-01-30T17:29:41.003Z,74.40
2023-01-30T17:32:25.807Z,74.70
2023-01-30T17:35:14.294Z,75.50
2023-01-30T17:38:05.191Z,76.20
2023-01-30T17:40:51.314Z,76.30
2023-01-30T17:43:36.859Z,76.50
2023-01-30T17:46:34.348Z,76.10
2023-01-30T17:49:22.436Z,76.50
2023-01-30T17:52:13.641Z,77.10
2023-01-30T17:54:59.039Z,77.20
2023-01-30T17:57:47.744Z,77.50
2023-01-30T18:00:33.609Z,77.60
2023-01-30T18:03:19.413Z,77.50
2023-01-30T18:06:11.211Z,77.50
2023-01-30T18:08:56.997Z,78.00
2023-01-30T18:11:43.639Z,78.20
2023-01-30T18:14:32.102Z,79.00
2023-01-30T18:17:17.877Z,79.50
2023-01-30T18:20:07.124Z,79.60
2023-01-30T18:22:55.387Z,79.90
2023-01-30T18:25:40.768Z,80.50
2023-01-30T18:28:30.228Z,82.00
2023-01-30T18:31:19.130Z,81.70
2023-01-30T18:34:07.245Z,81.90
2023-01-30T18:36:52.469Z,82.10
2023-01-30T18:39:44.233Z,81.40
2023-01-30T18:42:29.753Z,81.40
2023-01-30T18:45:15.477Z,81.20
2023-01-30T18:48:00.942Z,81.00
2023-01-30T18:50:48.504Z,81.00
2023-01-30T18:53:34.021Z,81.30
2023-01-30T18:56:23.108Z,81.50
2023-01-30T18:59:10.119Z,81.30
2023-01-30T19:01:55.408Z,81.60
2023-01-30T19:04:41.051Z,81.10
2023-01-30T19:07:26.702Z,80.90
2023-01-30T19:10:17.472Z,81.20
2023-01-30T19:13:22.275Z,81.40
2023-01-30T19:16:07.656Z,81.80
2023-01-30T19:18:54.332Z,82.00
2023-01-30T19:21:39.921Z,82.30
2023-01-30T19:24:25.982Z,82.50
2023-01-30T19:27:36.119Z,82.60
2023-01-30T19:30:20.503Z,82.90
2023-01-30T19:33:06.292Z,83.10
2023-01-30T19:35:51.836Z,83.50
2023-01-30T19:38:41.326Z,83.60
2023-01-30T19:41:29.262Z,83.40
2023-01-30T19:44:14.448Z,83.50
2023-01-30T19:47:00.448Z,83.70
2023-01-30T19:49:46.076Z,83.90
2023-01-30T19:52:41.186Z,83.70
2023-01-30T19:55:26.977Z,84.90
2023-01-30T19:58:15.770Z,85.10
2023-01-30T20:01:06.291Z,84.70
2023-01-30T20:03:51.450Z,84.40
2023-01-30T20:06:38.263Z,84.40
2023-01-30T20:09:24.252Z,84.10
2023-01-30T20:12:09.451Z,84.00
2023-01-30T20:14:55.171Z,83.70
2023-01-30T20:17:40.440Z,83.60
2023-01-30T20:20:25.823Z,83.80
2023-01-30T20:23:14.147Z,84.00
2023-01-30T20:26:02.761Z,83.90
2023-01-30T20:28:49.281Z,83.70
2023-01-30T20:31:34.874Z,84.10
2023-01-30T20:34:20.549Z,84.10
2023-01-30T20:37:05.919Z,84.40
2023-01-30T20:39:53.277Z,84.80
2023-01-30T20:42:38.657Z,85.50
2023-01-30T20:45:24.204Z,85.70
2023-01-30T20:48:09.628Z,85.50
2023-01-30T20:50:55.013Z,85.30
2023-01-30T20:53:47.889Z,84.80
2023-01-30T20:56:39.784Z,84.40
2023-01-30T20:59:27.322Z,84.60
2023-01-30T21:02:12.961Z,84.60
2023-01-30T21:04:58.551Z,84.20
2023-01-30T21:07:44.052Z,84.50
2023-01-30T21:10:29.318Z,84.40
2023-01-30T21:13:14.896Z,84.40
2023-01-30T21:16:07.538Z,84.50
2023-01-30T21:18:55.056Z,85.10
2023-01-30T21:21:50.986Z,85.30
2023-01-30T21:24:39.466Z,85.00
2023-01-30T21:27:24.980Z,85.30
2023-01-30T21:30:10.956Z,85.40
2023-01-30T21:32:57.618Z,85.60
2023-01-30T21:35:43.190Z,85.40
2023-01-30T21:38:48.159Z,85.90
2023-01-30T21:41:56.673Z,85.90
2023-01-30T21:44:42.166Z,85.70
2023-01-30T21:47:30.183Z,85.80
2023-01-30T21:50:16.154Z,86.20
2023-01-30T21:53:02.400Z,86.50
2023-01-30T21:55:52.146Z,86.70
2023-01-30T21:58:37.664Z,86.90
2023-01-30T22:01:23.038Z,87.20
2023-01-30T22:04:13.888Z,87.20
2023-01-30T22:06:59.122Z,88.50
2023-01-30T22:09:45.180Z,87.80
2023-01-30T22:12:32.375Z,87.80
2023-01-30T22:15:20.913Z,88.20
2023-01-30T22:18:10.589Z,87.90
2023-01-30T22:21:17.918Z,87.70
2023-01-30T22:24:07.575Z,87.50
2023-01-30T22:26:53.172Z,87.50
2023-01-30T22:29:39.973Z,87.70
2023-01-30T22:32:25.687Z,87.70
2023-01-30T22:35:11.460Z,87.90
2023-01-30T22:37:56.845Z,88.30
2023-01-30T22:40:42.215Z,88.30
2023-01-30T22:43:28.948Z,88.50
2023-01-30T22:46:15.895Z,88.50
2023-01-30T22:49:03.000Z,88.60
2023-01-30T22:51:49.062Z,88.70
2023-01-30T22:54:34.568Z,88.50
2023-01-30T22:57:21.669Z,88.60
2023-01-30T23:00:10.629Z,88.90
2023-01-30T23:02:56.572Z,88.90
2023-01-30T23:05:43.410Z,89.20
2023-01-30T23:08:31.336Z,89.30
2023-01-30T23:11:26.472Z,89.50
2023-01-30T23:14:16.607Z,89.20
2023-01-30T23:17:22.070Z,89.70
2023-01-30T23:20:08.659Z,89.90
2023-01-30T23:22:54.283Z,90.00
2023-01-30T23:25:41.264Z,89.80
2023-01-30T23:28:26.980Z,90.00
2023-01-30T23:31:15.862Z,90.20
2023-01-30T23:34:03.804Z,90.00
2023-01-30T23:36:49.065Z,90.20
2023-01-30T23:39:34.329Z,90.50
2023-01-30T23:42:19.773Z,90.60
2023-01-30T23:45:11.618Z,90.50
2023-01-30T23:47:57.303Z,90.50
2023-01-30T23:50:42.844Z,90.80
2023-01-30T23:53:28.594Z,90.80
2023-01-30T23:56:15.063Z,90.90
2023-01-30T23:59:00.654Z,90.90
